Time;durP1;ratioP1;P1;durP2;ratioP2;P2;SDS_P1;SDS_P2;PMS_P1;PMS_P2;Temp;Humidity;BMP_temperature;BMP_pressure;BME280_temperature;BME280_humidity;BME280_pressure;Samples;Min_cycle;Max_cycle;Signal;HPM_P1;HPM_P2
2022/07/20 00:01:29;;;;;;;5.83;5.33;;;22.20;99.90;;;;;;5079229;28;20479;-59
2022/07/20 00:03:57;;;;;;;5.53;5.13;;;22.20;99.90;;;;;;5079123;28;20514;-59
2022/07/20 00:06:24;;;;;;;5.00;4.60;;;22.10;99.90;;;;;;5079393;28;20446;-59
2022/07/20 00:11:36;;;;;;;5.70;5.00;;;22.20;99.90;;;;;;5079147;28;20495;-52
2022/07/20 00:14:06;;;;;;;6.83;5.70;;;22.20;99.90;;;;;;5078836;28;20603;-58
2022/07/20 00:16:36;;;;;;;5.70;4.83;;;22.20;99.90;;;;;;5078876;28;20540;-58
2022/07/20 00:19:04;;;;;;;5.73;4.53;;;22.30;99.90;;;;;;5079432;28;20564;-59
2022/07/20 00:21:36;;;;;;;6.33;4.83;;;22.30;99.90;;;;;;5079384;28;20432;-59
2022/07/20 00:24:07;;;;;;;9.40;5.47;;;22.30;99.90;;;;;;5078844;28;20564;-59
2022/07/20 00:26:34;;;;;;;6.17;5.57;;;22.30;99.90;;;;;;5078972;28;20565;-59
2022/07/20 00:29:02;;;;;;;5.87;5.10;;;22.40;99.90;;;;;;5079343;28;20458;-59
2022/07/20 00:31:36;;;;;;;5.43;5.00;;;22.30;99.90;;;;;;5078650;28;20488;-59
2022/07/20 00:34:04;;;;;;;7.60;5.00;;;22.30;99.90;;;;;;5078679;28;20816;-58
2022/07/20 00:36:32;;;;;;;5.00;4.60;;;22.30;99.90;;;;;;5078712;28;20753;-58
2022/07/20 00:39:01;;;;;;;6.73;5.70;;;22.20;99.90;;;;;;5078777;28;20776;-58
2022/07/20 00:41:29;;;;;;;5.40;4.73;;;22.20;99.90;;;;;;5078759;28;20798;-58
2022/07/20 00:43:58;;;;;;;5.80;5.20;;;22.20;99.90;;;;;;5078249;28;20471;-59
2022/07/20 00:46:29;;;;;;;7.33;5.83;;;22.20;99.90;;;;;;5078329;28;20504;-59
2022/07/20 00:48:59;;;;;;;5.47;4.70;;;22.10;99.90;;;;;;5078212;28;20745;-59
2022/07/20 00:51:34;;;;;;;5.67;5.17;;;22.00;99.90;;;;;;5078589;28;20486;-58
2022/07/20 00:54:02;;;;;;;8.17;5.47;;;22.00;99.90;;;;;;5078574;28;20838;-58
2022/07/20 00:56:29;;;;;;;5.67;5.20;;;22.00;99.90;;;;;;5078096;28;20512;-59
2022/07/20 00:58:57;;;;;;;5.60;5.20;;;22.10;99.90;;;;;;5078439;28;20468;-58
2022/07/20 01:01:24;;;;;;;8.23;5.87;;;22.10;99.90;;;;;;5078351;28;20493;-58
2022/07/20 01:03:55;;;;;;;5.90;5.10;;;22.10;99.90;;;;;;5077780;28;20497;-58
2022/07/20 01:06:28;;;;;;;5.30;4.80;;;22.20;99.90;;;;;;5077838;28;20440;-58
2022/07/20 01:08:57;;;;;;;6.20;5.30;;;22.20;99.90;;;;;;5078684;28;20461;-58
2022/07/20 01:11:25;;;;;;;5.07;4.53;;;22.20;99.90;;;;;;5077864;28;20489;-58
2022/07/20 01:13:52;;;;;;;7.10;5.50;;;22.20;99.90;;;;;;5077457;28;20465;-56
2022/07/20 01:16:21;;;;;;;5.63;5.13;;;22.20;99.90;;;;;;5077864;28;20554;-57
2022/07/20 01:18:48;;;;;;;5.57;5.07;;;22.20;99.90;;;;;;5078246;28;20822;-57
2022/07/20 01:21:18;;;;;;;5.43;4.90;;;22.20;99.90;;;;;;5077976;28;20949;-56
2022/07/20 01:23:45;;;;;;;7.53;5.20;;;22.10;99.90;;;;;;5077335;28;20457;-58
2022/07/20 01:26:12;;;;;;;5.63;5.10;;;22.10;99.90;;;;;;5077611;28;20559;-58
2022/07/20 01:28:40;;;;;;;5.27;4.80;;;22.10;99.90;;;;;;5077663;28;20552;-58
2022/07/20 01:31:07;;;;;;;5.60;5.13;;;22.10;99.90;;;;;;5077414;28;20559;-58
2022/07/20 01:33:35;;;;;;;9.30;5.07;;;22.10;99.90;;;;;;5077276;28;20468;-57
2022/07/20 01:36:02;;;;;;;6.03;5.53;;;22.20;99.90;;;;;;5075604;28;20492;-58
2022/07/20 01:38:34;;;;;;;5.47;4.57;;;22.30;99.90;;;;;;5076461;28;20906;-59
2022/07/20 01:41:03;;;;;;;5.20;4.57;;;22.30;99.90;;;;;;5076945;28;20472;-58
2022/07/20 01:43:31;;;;;;;6.57;5.33;;;22.50;99.90;;;;;;5077358;28;20483;-58
2022/07/20 01:45:58;;;;;;;5.20;4.70;;;22.60;99.90;;;;;;5076577;28;20534;-58
2022/07/20 01:48:26;;;;;;;5.43;4.90;;;22.60;99.90;;;;;;5075773;28;20854;-58
2022/07/20 01:50:55;;;;;;;5.20;4.50;;;22.70;99.90;;;;;;5075863;28;20489;-59
2022/07/20 01:53:22;;;;;;;5.27;4.77;;;22.60;99.90;;;;;;5076620;28;20738;-56
2022/07/20 01:55:54;;;;;;;6.10;4.93;;;22.70;99.90;;;;;;5076860;28;20461;-58
2022/07/20 01:58:23;;;;;;;6.70;5.30;;;22.60;99.90;;;;;;5076872;28;20847;-58
2022/07/20 02:00:51;;;;;;;6.47;4.30;;;22.60;99.90;;;;;;5077303;28;20461;-58
2022/07/20 02:03:19;;;;;;;6.00;5.40;;;22.70;99.90;;;;;;5077266;28;20471;-58
2022/07/20 02:05:47;;;;;;;5.87;5.27;;;22.90;99.90;;;;;;5077027;28;20518;-59
2022/07/20 02:08:14;;;;;;;9.00;5.00;;;23.00;99.90;;;;;;5077287;28;20465;-58
2022/07/20 02:10:41;;;;;;;7.70;5.00;;;23.10;99.90;;;;;;5077381;28;20523;-58
2022/07/20 02:13:10;;;;;;;7.13;5.33;;;23.20;99.90;;;;;;5076965;28;20457;-56
2022/07/20 02:18:31;;;;;;;9.00;4.97;;;23.40;99.90;;;;;;5076881;28;20432;-59
2022/07/20 02:21:01;;;;;;;5.20;4.70;;;23.50;99.90;;;;;;5077529;28;20455;-59
2022/07/20 02:23:28;;;;;;;5.60;5.00;;;23.60;99.90;;;;;;5077424;28;20461;-59
2022/07/20 02:25:59;;;;;;;5.20;4.70;;;23.70;99.90;;;;;;5076845;28;20852;-58
2022/07/20 02:28:30;;;;;;;6.40;5.13;;;23.80;99.90;;;;;;5077315;28;20546;-58
2022/07/20 02:30:58;;;;;;;5.67;5.17;;;23.80;99.90;;;;;;5077131;28;20489;-59
2022/07/20 02:33:30;;;;;;;4.97;4.57;;;24.10;99.90;;;;;;5077035;28;20550;-57
2022/07/20 02:35:58;;;;;;;5.93;5.43;;;24.40;99.90;;;;;;5076655;28;20472;-59
2022/07/20 02:38:25;;;;;;;5.77;4.60;;;24.50;99.90;;;;;;5076983;28;20556;-60
2022/07/20 02:40:55;;;;;;;6.03;4.90;;;24.70;99.90;;;;;;5076842;28;20459;-59
2022/07/20 02:43:23;;;;;;;6.83;5.40;;;25.00;99.90;;;;;;5076727;28;20465;-59
2022/07/20 02:45:51;;;;;;;8.67;5.03;;;25.00;99.90;;;;;;5076335;28;20769;-59
2022/07/20 02:48:19;;;;;;;4.87;4.43;;;25.10;99.90;;;;;;5076913;28;20527;-58
2022/07/20 02:50:46;;;;;;;6.63;5.20;;;25.10;99.90;;;;;;5076965;28;20536;-58
2022/07/20 02:53:14;;;;;;;6.30;5.27;;;25.20;99.90;;;;;;5077214;28;20882;-60
2022/07/20 02:55:43;;;;;;;6.23;4.60;;;25.20;99.90;;;;;;5077100;28;20886;-59
2022/07/20 02:58:11;;;;;;;6.63;5.27;;;25.20;99.90;;;;;;5076893;28;20560;-59
2022/07/20 03:00:43;;;;;;;4.37;3.73;;;25.20;99.90;;;;;;5080550;28;20511;-59
2022/07/20 03:03:12;;;;;;;5.73;5.23;;;25.10;99.90;;;;;;5080679;28;20565;-58
2022/07/20 03:05:39;;;;;;;9.13;4.43;;;25.20;99.90;;;;;;5080816;28;20482;-59
2022/07/20 03:08:09;;;;;;;6.70;4.80;;;25.20;99.90;;;;;;5080186;28;20471;-59
2022/07/20 03:10:37;;;;;;;5.40;4.90;;;25.10;99.90;;;;;;5080349;28;20492;-59
2022/07/20 03:13:09;;;;;;;5.27;4.77;;;25.00;99.90;;;;;;5080546;28;20530;-59
2022/07/20 03:15:37;;;;;;;4.67;4.27;;;24.90;99.90;;;;;;5080631;28;20461;-58
2022/07/20 03:18:04;;;;;;;7.37;5.77;;;24.80;99.90;;;;;;5079869;28;20489;-59
2022/07/20 03:20:37;;;;;;;8.57;5.60;;;24.90;99.90;;;;;;5080065;28;20443;-58
2022/07/20 03:23:05;;;;;;;8.67;4.97;;;24.90;99.90;;;;;;5080261;28;20463;-59
2022/07/20 03:25:33;;;;;;;6.30;4.43;;;24.80;99.90;;;;;;5080464;28;20461;-59
2022/07/20 03:28:00;;;;;;;6.50;4.90;;;24.90;99.90;;;;;;5080289;28;20465;-59
2022/07/20 03:30:29;;;;;;;8.33;4.70;;;25.00;99.90;;;;;;5079921;28;20559;-59
2022/07/20 03:32:56;;;;;;;6.53;4.83;;;25.20;99.90;;;;;;5079867;28;20503;-59
2022/07/20 03:35:24;;;;;;;8.03;4.97;;;25.20;99.90;;;;;;5076265;28;20568;-59
2022/07/20 03:37:53;;;;;;;5.93;5.20;;;25.40;99.90;;;;;;5079740;28;20769;-59
2022/07/20 03:40:20;;;;;;;9.83;5.07;;;25.50;99.90;;;;;;5079487;28;20496;-59
2022/07/20 03:42:47;;;;;;;5.80;4.97;;;25.50;99.90;;;;;;5079118;28;20464;-58
2022/07/20 03:45:19;;;;;;;5.13;4.10;;;25.40;99.90;;;;;;5080303;28;20503;-59
2022/07/20 03:47:49;;;;;;;5.03;4.63;;;25.40;99.90;;;;;;5078621;28;20503;-59
2022/07/20 03:50:16;;;;;;;4.70;4.20;;;25.40;99.90;;;;;;5079553;28;20461;-57
2022/07/20 03:52:44;;;;;;;6.73;5.60;;;25.40;99.90;;;;;;5079799;28;20591;-57
2022/07/20 03:55:12;;;;;;;6.00;5.40;;;25.40;99.90;;;;;;5076578;28;20475;-59
2022/07/20 03:57:40;;;;;;;4.90;4.50;;;25.50;99.90;;;;;;5079830;28;20515;-61
2022/07/20 04:00:11;;;;;;;10.43;5.17;;;25.60;99.90;;;;;;5077948;28;20432;-58
2022/07/20 04:02:39;;;;;;;6.20;5.60;;;25.70;99.90;;;;;;5078964;28;20458;-59
2022/07/20 04:05:08;;;;;;;6.13;4.53;;;25.80;99.90;;;;;;5079620;28;20560;-59
2022/07/20 04:07:35;;;;;;;5.50;5.00;;;25.80;99.90;;;;;;5078922;28;20435;-59
2022/07/20 04:10:02;;;;;;;4.93;4.50;;;25.90;99.90;;;;;;5078123;28;20473;-59
2022/07/20 04:12:31;;;;;;;9.50;5.23;;;25.90;99.90;;;;;;5079485;28;20537;-59
2022/07/20 04:14:59;;;;;;;8.03;5.00;;;25.80;99.90;;;;;;5079496;28;20757;-56
2022/07/20 04:17:26;;;;;;;6.30;5.43;;;25.70;99.90;;;;;;5078975;28;20579;-55
2022/07/20 04:19:53;;;;;;;5.87;5.20;;;25.50;99.90;;;;;;5079059;28;20465;-58
2022/07/20 04:22:22;;;;;;;5.63;4.97;;;25.40;99.90;;;;;;5078870;28;20461;-59
2022/07/20 04:24:53;;;;;;;8.70;5.47;;;25.20;99.90;;;;;;5079428;28;20465;-58
2022/07/20 04:27:21;;;;;;;5.57;5.07;;;25.00;99.90;;;;;;5079361;28;20461;-59
2022/07/20 04:29:50;;;;;;;5.80;5.03;;;24.90;99.90;;;;;;5078542;28;21018;-57
2022/07/20 04:32:17;;;;;;;7.43;4.40;;;24.90;99.90;;;;;;5078575;28;20599;-59
2022/07/20 04:34:44;;;;;;;8.20;4.57;;;24.80;99.90;;;;;;5078362;28;20519;-57
2022/07/20 04:37:14;;;;;;;5.73;5.07;;;24.80;99.90;;;;;;5079273;28;20439;-59
2022/07/20 04:39:44;;;;;;;6.30;5.70;;;24.60;99.90;;;;;;5079017;28;20531;-58
2022/07/20 04:42:11;;;;;;;4.87;4.33;;;24.50;99.90;;;;;;5078860;28;20568;-59
2022/07/20 04:44:43;;;;;;;5.43;4.93;;;24.50;99.90;;;;;;5078506;28;20501;-59
2022/07/20 04:47:12;;;;;;;8.70;5.10;;;24.40;99.90;;;;;;5079054;28;20522;-58
2022/07/20 04:49:42;;;;;;;6.73;4.57;;;24.50;99.90;;;;;;5078285;28;20932;-56
2022/07/20 04:52:10;;;;;;;5.60;5.10;;;24.70;99.90;;;;;;5078722;28;20880;-57
2022/07/20 04:54:37;;;;;;;5.00;4.60;;;24.80;99.90;;;;;;5078417;28;20547;-58
2022/07/20 04:57:05;;;;;;;5.50;5.00;;;24.90;99.90;;;;;;5078497;28;20465;-59
2022/07/20 04:59:32;;;;;;;6.10;5.60;;;25.00;99.90;;;;;;5078112;28;20465;-58
2022/07/20 05:02:00;;;;;;;5.97;5.47;;;25.20;99.90;;;;;;5076963;28;20457;-59
2022/07/20 05:04:28;;;;;;;7.10;5.03;;;25.30;99.90;;;;;;5077732;28;20504;-59
2022/07/20 05:06:57;;;;;;;5.60;5.10;;;25.40;99.90;;;;;;5078266;28;20500;-59
2022/07/20 05:09:27;;;;;;;5.90;5.33;;;25.50;99.90;;;;;;5078140;28;20931;-59
2022/07/20 05:11:58;;;;;;;7.93;5.30;;;25.60;99.90;;;;;;5077134;28;20489;-60
2022/07/20 05:14:25;;;;;;;7.67;5.63;;;25.60;99.90;;;;;;5077933;28;20465;-59
2022/07/20 05:16:58;;;;;;;10.33;5.73;;;25.60;99.90;;;;;;5077630;28;20515;-59
2022/07/20 05:19:25;;;;;;;6.07;5.53;;;25.60;99.90;;;;;;5078499;28;20912;-59
2022/07/20 05:21:55;;;;;;;10.70;5.40;;;25.70;99.90;;;;;;5077053;28;20552;-57
2022/07/20 05:24:22;;;;;;;6.10;5.30;;;25.60;99.90;;;;;;5077700;28;20515;-59
2022/07/20 05:26:49;;;;;;;6.40;5.90;;;25.70;99.90;;;;;;5075152;28;20477;-58
2022/07/20 05:29:20;;;;;;;6.80;5.10;;;25.80;99.90;;;;;;5077068;28;20961;-58
2022/07/20 05:31:47;;;;;;;11.77;5.60;;;25.70;99.90;;;;;;5077325;28;20472;-59
2022/07/20 05:34:15;;;;;;;7.63;5.53;;;25.70;99.90;;;;;;5077443;28;20465;-58
2022/07/20 05:36:42;;;;;;;7.63;5.83;;;25.80;99.90;;;;;;5077664;28;20472;-59
2022/07/20 05:39:11;;;;;;;7.67;6.07;;;25.90;99.90;;;;;;5077848;28;20465;-59
2022/07/20 05:41:41;;;;;;;7.90;5.30;;;26.10;99.90;;;;;;5078126;28;20461;-59
2022/07/20 05:44:08;;;;;;;7.90;6.00;;;26.20;99.90;;;;;;5076600;28;20769;-59
2022/07/20 05:46:36;;;;;;;6.57;5.50;;;26.30;99.90;;;;;;5075627;28;20469;-59
2022/07/20 05:49:06;;;;;;;10.00;5.87;;;26.40;99.90;;;;;;5074789;28;20474;-59
2022/07/20 05:51:35;;;;;;;9.67;6.47;;;26.50;99.90;;;;;;5071568;28;20474;-59
2022/07/20 05:54:06;;;;;;;8.30;5.33;;;26.60;99.90;;;;;;5056192;28;20937;-59
2022/07/20 05:56:34;;;;;;;5.50;5.10;;;26.80;99.90;;;;;;5056199;28;20512;-59
2022/07/20 05:59:02;;;;;;;8.00;5.63;;;27.00;99.90;;;;;;5057071;28;20466;-59
2022/07/20 06:01:35;;;;;;;11.47;5.53;;;27.10;99.90;;;;;;5056289;28;20827;-58
2022/07/20 06:04:02;;;;;;;10.70;5.20;;;27.20;99.90;;;;;;5056678;28;20462;-59
2022/07/20 06:06:30;;;;;;;6.30;5.50;;;27.10;99.90;;;;;;5056509;28;20986;-57
2022/07/20 06:08:57;;;;;;;8.23;7.33;;;27.20;99.90;;;;;;5056861;28;20776;-60
2022/07/20 06:11:24;;;;;;;8.67;6.70;;;27.10;99.90;;;;;;5056849;28;20466;-59
2022/07/20 06:13:53;;;;;;;10.30;6.43;;;27.00;99.90;;;;;;5056633;28;20950;-59
2022/07/20 06:16:25;;;;;;;9.67;8.77;;;26.80;99.90;;;;;;5056714;28;20533;-58
2022/07/20 06:18:56;;;;;;;10.10;8.20;;;26.80;99.90;;;;;;5056901;28;20750;-59
2022/07/20 06:21:29;;;;;;;12.90;9.23;;;26.90;99.90;;;;;;5056814;28;20561;-59
2022/07/20 06:23:58;;;;;;;14.73;9.60;;;26.90;99.90;;;;;;5057188;28;20483;-59
2022/07/20 06:26:25;;;;;;;10.97;9.97;;;27.00;99.90;;;;;;5057022;28;20462;-59
2022/07/20 06:28:54;;;;;;;13.00;10.30;;;27.00;99.90;;;;;;5066049;28;20457;-57
2022/07/20 06:31:24;;;;;;;11.73;10.20;;;27.00;99.90;;;;;;5075395;28;20526;-59
2022/07/20 06:33:54;;;;;;;11.97;10.53;;;27.30;99.90;;;;;;5079155;28;20576;-60
2022/07/20 06:36:22;;;;;;;15.03;12.13;;;27.50;99.90;;;;;;5080490;28;20750;-59
2022/07/20 06:38:51;;;;;;;14.57;11.73;;;27.80;99.90;;;;;;5080057;28;20476;-59
2022/07/20 06:41:22;;;;;;;15.53;11.90;;;27.90;99.90;;;;;;5081400;28;20460;-60
2022/07/20 06:43:51;;;;;;;17.50;12.50;;;28.10;99.90;;;;;;5080476;28;20488;-60
2022/07/20 06:46:20;;;;;;;13.77;12.17;;;28.00;99.90;;;;;;5080544;28;20461;-59
2022/07/20 06:48:49;;;;;;;16.23;12.50;;;28.20;99.90;;;;;;5080839;28;20436;-58
2022/07/20 06:51:16;;;;;;;15.47;13.67;;;28.20;99.90;;;;;;5080252;28;20853;-59
2022/07/20 06:53:44;;;;;;;19.33;14.53;;;28.40;99.90;;;;;;5080445;28;20766;-59
2022/07/20 06:56:11;;;;;;;16.30;13.80;;;28.40;99.90;;;;;;5080696;28;20757;-56
2022/07/20 06:58:38;;;;;;;17.00;14.80;;;28.30;99.90;;;;;;5078761;28;20495;-60
2022/07/20 07:01:06;;;;;;;16.40;14.80;;;28.50;99.90;;;;;;5077262;28;20428;-60
2022/07/20 07:03:38;;;;;;;17.00;15.20;;;28.40;99.90;;;;;;5077522;28;20873;-61
2022/07/20 07:06:08;;;;;;;22.33;16.03;;;28.40;99.90;;;;;;5077183;28;20455;-60
2022/07/20 07:08:35;;;;;;;17.10;15.23;;;28.50;99.90;;;;;;5078266;28;20967;-61
2022/07/20 07:11:03;;;;;;;16.30;14.60;;;28.50;99.90;;;;;;5077432;28;20560;-61
2022/07/20 07:13:30;;;;;;;18.57;16.70;;;28.60;99.90;;;;;;5076798;28;20602;-60
2022/07/20 07:16:00;;;;;;;18.50;16.70;;;28.90;99.90;;;;;;5078221;28;20460;-60
2022/07/20 07:18:27;;;;;;;19.10;16.57;;;28.80;99.90;;;;;;5077556;28;20869;-60
2022/07/20 07:21:00;;;;;;;23.77;18.50;;;29.10;99.90;;;;;;5077372;28;20438;-60
2022/07/20 07:23:28;;;;;;;18.50;16.70;;;29.40;99.90;;;;;;5075728;28;20457;-60
2022/07/20 07:25:58;;;;;;;19.30;17.17;;;29.70;99.90;;;;;;5078512;28;20438;-60
2022/07/20 07:28:28;;;;;;;19.57;16.90;;;29.90;99.90;;;;;;5079609;28;20464;-60
2022/07/20 07:31:01;;;;;;;21.80;18.83;;;30.20;99.90;;;;;;5078514;28;20464;-59
2022/07/20 07:33:32;;;;;;;20.27;18.27;;;29.90;99.90;;;;;;5079584;28;20496;-61
2022/07/20 07:36:04;;;;;;;24.50;18.80;;;29.70;99.90;;;;;;5079411;28;20510;-60
2022/07/20 07:38:35;;;;;;;22.30;18.40;;;29.60;99.90;;;;;;5079118;28;20559;-61
2022/07/20 07:41:05;;;;;;;22.20;19.93;;;29.40;99.90;;;;;;5079587;28;20835;-60
2022/07/20 07:43:36;;;;;;;21.27;18.73;;;29.70;99.90;;;;;;5080180;28;20542;-60
2022/07/20 07:46:04;;;;;;;21.73;19.73;;;29.50;99.90;;;;;;5079263;28;20559;-60
2022/07/20 07:48:34;;;;;;;22.63;20.17;;;29.60;99.90;;;;;;5079560;28;20550;-59
2022/07/20 07:51:06;;;;;;;22.30;20.20;;;29.30;99.90;;;;;;5077155;28;20722;-59
2022/07/20 07:53:34;;;;;;;24.77;22.27;;;28.90;99.90;;;;;;5078552;28;20500;-58
2022/07/20 07:56:03;;;;;;;24.23;21.47;;;28.40;99.90;;;;;;5078608;28;20467;-59
2022/07/20 07:58:30;;;;;;;25.00;22.43;;;28.20;99.90;;;;;;5078523;28;20519;-60
2022/07/20 08:01:01;;;;;;;26.90;24.10;;;28.80;99.90;;;;;;5078369;28;20968;-60
2022/07/20 08:03:31;;;;;;;25.77;22.93;;;28.60;99.90;;;;;;5079182;28;20442;-60
2022/07/20 08:05:58;;;;;;;24.90;22.30;;;28.90;99.90;;;;;;5079177;28;20949;-60
2022/07/20 08:08:27;;;;;;;28.13;25.13;;;29.00;99.90;;;;;;5078992;28;20518;-61
2022/07/20 08:10:54;;;;;;;25.47;23.20;;;29.40;99.90;;;;;;5079165;28;20440;-61
2022/07/20 08:13:25;;;;;;;24.60;22.60;;;29.00;99.90;;;;;;5079499;28;20499;-61
2022/07/20 08:15:55;;;;;;;26.50;23.87;;;29.00;99.90;;;;;;5078387;28;20462;-59
2022/07/20 08:18:23;;;;;;;30.00;23.33;;;28.80;99.90;;;;;;5079022;28;20522;-60
2022/07/20 08:20:51;;;;;;;27.00;24.53;;;29.00;99.90;;;;;;5078971;28;20466;-60
2022/07/20 08:23:24;;;;;;;27.63;25.10;;;28.90;99.90;;;;;;5079098;28;20461;-59
2022/07/20 08:25:58;;;;;;;27.20;24.53;;;29.30;99.90;;;;;;5078644;28;20461;-60
2022/07/20 08:28:26;;;;;;;27.43;23.10;;;29.70;99.90;;;;;;5078714;28;20547;-60
2022/07/20 08:31:00;;;;;;;24.93;22.63;;;29.70;99.90;;;;;;5078633;28;20520;-60
2022/07/20 08:33:34;;;;;;;26.40;22.70;;;29.80;99.90;;;;;;5078770;28;20467;-61
2022/07/20 08:36:03;;;;;;;26.23;23.60;;;29.80;99.90;;;;;;5078790;28;20892;-61
2022/07/20 08:38:31;;;;;;;26.03;23.67;;;30.60;99.90;;;;;;5078856;28;20769;-59
2022/07/20 08:41:02;;;;;;;26.00;23.63;;;30.20;99.90;;;;;;5078957;28;20532;-61
2022/07/20 08:43:29;;;;;;;27.83;25.07;;;30.10;99.90;;;;;;5078193;28;20420;-60
2022/07/20 08:45:57;;;;;;;26.17;23.77;;;30.10;99.90;;;;;;5078191;28;20438;-60
2022/07/20 08:48:28;;;;;;;25.17;22.77;;;30.20;99.90;;;;;;5078259;28;20457;-61
2022/07/20 08:50:56;;;;;;;27.67;25.00;;;30.40;99.90;;;;;;5078620;28;20465;-61
2022/07/20 08:53:33;;;;;;;25.83;23.20;;;30.60;99.90;;;;;;5078087;28;20566;-60
2022/07/20 08:56:04;;;;;;;26.27;23.57;;;30.50;99.90;;;;;;5077377;28;20435;-61
2022/07/20 08:58:32;;;;;;;26.60;24.17;;;31.00;99.90;;;;;;5078168;28;20759;-60
2022/07/20 09:01:01;;;;;;;27.27;24.90;;;31.40;99.90;;;;;;5077320;28;20461;-61
2022/07/20 09:03:30;;;;;;;26.67;24.37;;;31.00;99.90;;;;;;5078043;28;20461;-61
2022/07/20 09:06:06;;;;;;;26.83;24.57;;;31.00;99.90;;;;;;5077539;28;20752;-61
2022/07/20 09:08:33;;;;;;;25.20;23.20;;;31.10;99.90;;;;;;5078178;28;20466;-60
2022/07/20 09:11:05;;;;;;;26.87;24.40;;;30.80;99.90;;;;;;5077713;28;20461;-60
2022/07/20 09:13:36;;;;;;;25.53;23.30;;;31.20;99.90;;;;;;5078414;28;20474;-60
2022/07/20 09:16:03;;;;;;;25.77;23.53;;;31.80;99.90;;;;;;5078085;28;20930;-61
2022/07/20 09:18:33;;;;;;;25.30;22.80;;;32.40;99.90;;;;;;5078490;28;20731;-61
2022/07/20 09:21:01;;;;;;;25.17;22.53;;;32.20;99.90;;;;;;5078010;28;20878;-61
2022/07/20 09:23:33;;;;;;;24.53;22.40;;;32.20;99.90;;;;;;5077850;28;20527;-60
2022/07/20 09:26:06;;;;;;;23.87;21.37;;;30.80;99.90;;;;;;5077733;28;20488;-60
2022/07/20 09:28:44;;;;;;;25.03;22.27;;;31.00;99.90;;;;;;5077666;28;20450;-60
2022/07/20 09:31:13;;;;;;;23.90;21.43;;;31.70;99.90;;;;;;5077503;28;20461;-61
2022/07/20 09:33:49;;;;;;;23.03;20.87;;;32.50;99.90;;;;;;5077471;28;20579;-61
2022/07/20 09:36:17;;;;;;;22.77;20.63;;;33.30;99.90;;;;;;5076246;28;20834;-61
2022/07/20 09:38:44;;;;;;;19.73;18.03;;;33.10;99.90;;;;;;5075358;28;20824;-62
2022/07/20 09:41:24;;;;;;;21.33;19.20;;;33.80;99.90;;;;;;5075375;28;20483;-61
2022/07/20 09:43:55;;;;;;;19.37;17.67;;;34.10;99.90;;;;;;5076426;28;20919;-60
2022/07/20 09:46:27;;;;;;;20.53;18.50;;;33.50;99.90;;;;;;5076849;28;20500;-61
2022/07/20 09:48:56;;;;;;;20.50;18.70;;;33.30;99.90;;;;;;5077541;28;20550;-61
2022/07/20 09:51:27;;;;;;;20.87;19.17;;;33.20;99.90;;;;;;5077633;28;20461;-60
2022/07/20 09:54:03;;;;;;;20.10;18.30;;;33.50;99.90;;;;;;5074686;28;20463;-61
2022/07/20 09:56:34;;;;;;;19.63;17.93;;;33.10;99.90;;;;;;5077136;28;20439;-60
2022/07/20 09:59:04;;;;;;;19.27;17.77;;;34.00;99.90;;;;;;5076491;28;20527;-59
2022/07/20 10:01:36;;;;;;;18.90;17.07;;;34.20;99.90;;;;;;5077264;28;20563;-60
2022/07/20 10:04:06;;;;;;;18.13;16.63;;;32.80;99.90;;;;;;5076184;28;20469;-60
2022/07/20 10:06:37;;;;;;;19.53;17.57;;;33.00;99.90;;;;;;5075904;28;20461;-61
2022/07/20 10:09:09;;;;;;;19.37;17.93;;;32.90;99.90;;;;;;5073101;28;20941;-61
2022/07/20 10:11:39;;;;;;;19.87;17.90;;;33.20;99.90;;;;;;5073744;28;20578;-61
2022/07/20 10:14:09;;;;;;;17.10;15.80;;;32.90;99.90;;;;;;5077176;28;20492;-61
2022/07/20 10:16:41;;;;;;;19.37;17.40;;;32.90;99.90;;;;;;5076924;28;20914;-61
2022/07/20 10:19:15;;;;;;;19.43;17.53;;;33.20;99.90;;;;;;5077604;28;20436;-61
2022/07/20 10:21:45;;;;;;;18.40;16.60;;;34.10;99.90;;;;;;5075686;28;20730;-61
2022/07/20 10:24:22;;;;;;;20.27;18.40;;;34.30;99.90;;;;;;5077540;28;20467;-60
2022/07/20 10:26:54;;;;;;;19.17;17.40;;;34.00;99.90;;;;;;5077283;28;20468;-61
2022/07/20 10:29:33;;;;;;;21.10;19.13;;;33.70;99.90;;;;;;5077394;28;20555;-61
2022/07/20 10:32:17;;;;;;;21.77;19.43;;;34.10;99.90;;;;;;5077223;28;20498;-61
2022/07/20 10:34:46;;;;;;;21.10;19.20;;;34.30;99.90;;;;;;5077079;28;20492;-61
2022/07/20 10:37:35;;;;;;;19.60;17.77;;;34.50;99.90;;;;;;5077645;28;20543;-61
2022/07/20 10:40:25;;;;;;;19.80;17.97;;;34.10;99.90;;;;;;5077091;28;20436;-61
2022/07/20 10:43:12;;;;;;;20.27;18.47;;;34.00;99.90;;;;;;5074316;28;20924;-61
2022/07/20 10:45:41;;;;;;;18.10;16.43;;;34.70;99.90;;;;;;5077100;28;20467;-61
2022/07/20 10:48:27;;;;;;;18.33;16.63;;;35.00;99.90;;;;;;5074737;28;20584;-60
2022/07/20 10:50:58;;;;;;;17.17;14.87;;;34.20;99.90;;;;;;5069156;28;20535;-62
2022/07/20 10:53:42;;;;;;;17.70;15.90;;;34.60;99.90;;;;;;5076310;28;22431;-61
2022/07/20 10:56:10;;;;;;;18.17;16.77;;;33.90;99.90;;;;;;5074148;28;20468;-61
2022/07/20 10:58:45;;;;;;;20.17;18.17;;;34.30;99.90;;;;;;5075216;28;20555;-60
2022/07/20 11:01:16;;;;;;;20.27;18.50;;;34.60;99.90;;;;;;5075746;28;20445;-61
2022/07/20 11:03:45;;;;;;;20.33;18.17;;;34.60;99.90;;;;;;5076069;28;20469;-60
2022/07/20 11:06:14;;;;;;;20.43;18.43;;;34.80;99.90;;;;;;5075611;28;20472;-58
2022/07/20 11:08:51;;;;;;;21.33;18.83;;;34.70;99.90;;;;;;5075476;28;20485;-56
2022/07/20 11:11:20;;;;;;;18.33;16.60;;;34.40;99.90;;;;;;5075630;28;20472;-59
2022/07/20 11:13:49;;;;;;;20.63;17.97;;;32.70;99.90;;;;;;5075348;28;20497;-56
2022/07/20 11:16:19;;;;;;;22.13;20.03;;;32.30;99.90;;;;;;5075846;28;20588;-58
2022/07/20 11:18:48;;;;;;;19.47;17.97;;;32.60;99.90;;;;;;5076616;28;20489;-54
2022/07/20 11:21:27;;;;;;;18.23;16.70;;;33.30;99.90;;;;;;5077408;28;20476;-57
2022/07/20 11:23:54;;;;;;;19.50;17.70;;;33.80;99.90;;;;;;5079114;28;20551;-57
2022/07/20 11:26:23;;;;;;;19.27;17.27;;;34.60;99.90;;;;;;5079828;28;20464;-60
2022/07/20 11:28:56;;;;;;;17.20;15.60;;;34.70;99.90;;;;;;5080072;28;20555;-58
2022/07/20 11:31:26;;;;;;;19.20;17.60;;;34.50;99.90;;;;;;5080275;28;20475;-58
2022/07/20 11:33:57;;;;;;;18.60;16.30;;;34.20;99.90;;;;;;5079555;28;20586;-57
2022/07/20 11:36:29;;;;;;;19.37;17.57;;;34.40;99.90;;;;;;5080023;28;20439;-57
2022/07/20 11:39:02;;;;;;;18.30;16.70;;;34.60;99.90;;;;;;5079760;28;20435;-56
2022/07/20 11:41:39;;;;;;;19.30;17.40;;;34.90;99.90;;;;;;5079668;28;20869;-51
2022/07/20 11:44:15;;;;;;;16.73;15.30;;;35.00;99.90;;;;;;5078781;28;20460;-58
2022/07/20 11:46:44;;;;;;;20.13;18.20;;;34.80;99.90;;;;;;5079680;28;20555;-59
2022/07/20 11:49:15;;;;;;;19.17;16.20;;;33.70;99.90;;;;;;5080067;28;20467;-59
2022/07/20 11:51:45;;;;;;;17.87;16.17;;;34.50;99.90;;;;;;5080012;28;20457;-56
2022/07/20 11:54:20;;;;;;;25.33;17.60;;;34.30;99.90;;;;;;5079200;28;20488;-59
2022/07/20 11:56:50;;;;;;;16.60;15.10;;;34.80;99.90;;;;;;5079448;28;20467;-55
2022/07/20 11:59:23;;;;;;;16.57;15.07;;;34.60;99.90;;;;;;5079672;28;20912;-56
2022/07/20 12:01:52;;;;;;;17.03;15.60;;;34.00;99.90;;;;;;5078923;28;20456;-57
2022/07/20 12:04:21;;;;;;;15.83;14.20;;;34.30;99.90;;;;;;5079367;28;20514;-59
2022/07/20 12:06:54;;;;;;;16.20;14.80;;;34.40;99.90;;;;;;5079423;28;20745;-60
2022/07/20 12:09:25;;;;;;;16.77;15.47;;;35.00;99.90;;;;;;5079284;28;20556;-58
2022/07/20 12:12:03;;;;;;;16.50;14.93;;;34.20;99.90;;;;;;5077221;28;20555;-58
2022/07/20 12:14:34;;;;;;;16.60;15.00;;;33.00;99.90;;;;;;5075042;28;20464;-58
2022/07/20 12:17:14;;;;;;;16.87;15.43;;;33.70;99.90;;;;;;5077308;28;20863;-57
2022/07/20 12:19:56;;;;;;;18.30;16.50;;;33.80;99.90;;;;;;5077088;28;20555;-56
2022/07/20 12:22:27;;;;;;;17.67;16.10;;;34.20;99.90;;;;;;5076870;28;20777;-59
2022/07/20 12:24:55;;;;;;;17.10;15.70;;;34.60;99.90;;;;;;5074949;28;20449;-51
2022/07/20 12:27:24;;;;;;;16.67;15.10;;;35.10;99.90;;;;;;5077681;28;20460;-58
2022/07/20 12:29:56;;;;;;;17.93;16.33;;;35.10;99.90;;;;;;5073774;28;20715;-59
2022/07/20 12:32:36;;;;;;;21.10;16.00;;;35.30;99.90;;;;;;5076221;28;20551;-56
2022/07/20 12:35:08;;;;;;;17.40;15.60;;;34.20;99.90;;;;;;5075819;28;20488;-59
2022/07/20 12:37:53;;;;;;;16.43;14.93;;;34.50;99.90;;;;;;5075403;28;20844;-57
2022/07/20 12:40:41;;;;;;;16.50;15.00;;;34.70;99.90;;;;;;5076436;28;20947;-58
2022/07/20 12:43:34;;;;;;;19.73;17.70;;;34.60;99.90;;;;;;5078412;28;20492;-51
2022/07/20 12:46:07;;;;;;;18.50;16.60;;;32.90;99.90;;;;;;5078469;28;20547;-59
2022/07/20 12:48:42;;;;;;;17.13;15.63;;;32.60;99.90;;;;;;5078669;28;20472;-59
2022/07/20 12:51:10;;;;;;;17.83;15.17;;;32.90;99.90;;;;;;5078605;28;20559;-59
2022/07/20 12:53:41;;;;;;;18.13;16.70;;;33.40;99.90;;;;;;5077899;28;20469;-56
2022/07/20 12:56:13;;;;;;;17.90;16.50;;;34.20;99.90;;;;;;5076710;28;20807;-58